createdAt,value
2023-05-21T00:00:15.398Z,5.73
2023-05-21T00:03:02.121Z,6.80
2023-05-21T00:05:50.222Z,4.93
2023-05-21T00:08:37.002Z,4.23
2023-05-21T00:11:24.158Z,8.80
2023-05-21T00:14:11.816Z,4.50
2023-05-21T00:16:58.152Z,5.50
2023-05-21T00:19:44.512Z,4.23
2023-05-21T00:22:30.781Z,5.97
2023-05-21T00:25:17.311Z,5.77
2023-05-21T00:28:04.283Z,5.83
2023-05-21T00:30:52.121Z,5.23
2023-05-21T00:33:39.044Z,5.80
2023-05-21T00:36:25.621Z,8.63
2023-05-21T00:39:11.958Z,6.27
2023-05-21T00:41:58.490Z,9.13
2023-05-21T00:44:45.599Z,5.00
2023-05-21T00:47:33.909Z,5.73
2023-05-21T00:50:20.918Z,5.67
2023-05-21T00:53:09.685Z,4.17
2023-05-21T00:55:56.684Z,5.33
2023-05-21T00:58:43.417Z,5.13
2023-05-21T01:01:34.131Z,5.53
2023-05-21T01:04:23.369Z,4.73
2023-05-21T01:07:10.573Z,7.57
2023-05-21T01:09:57.084Z,5.53
2023-05-21T01:12:45.394Z,5.07
2023-05-21T01:15:32.235Z,6.17
2023-05-21T01:18:20.669Z,5.33
2023-05-21T01:21:09.796Z,4.80
2023-05-21T01:23:58.467Z,5.80
2023-05-21T01:26:46.664Z,7.73
2023-05-21T01:29:33.780Z,7.30
2023-05-21T01:32:28.192Z,7.17
2023-05-21T01:35:18.747Z,5.93
2023-05-21T01:38:13.129Z,5.70
2023-05-21T01:41:04.159Z,8.30
2023-05-21T01:43:52.431Z,5.73
2023-05-21T01:46:39.530Z,7.23
2023-05-21T01:49:26.869Z,5.03
2023-05-21T01:52:13.403Z,7.13
2023-05-21T01:55:01.328Z,7.17
2023-05-21T01:57:49.612Z,5.97
2023-05-21T02:00:37.482Z,4.93
2023-05-21T02:03:28.091Z,6.73
2023-05-21T02:06:14.962Z,6.97
2023-05-21T02:09:01.291Z,7.57
2023-05-21T02:11:47.857Z,6.53
2023-05-21T02:14:36.267Z,7.10
2023-05-21T02:17:23.005Z,6.43
2023-05-21T02:20:12.166Z,5.63
2023-05-21T02:22:58.919Z,8.10
2023-05-21T02:25:45.820Z,6.23
2023-05-21T02:28:32.773Z,6.77
2023-05-21T02:31:21.103Z,6.30
2023-05-21T02:34:08.823Z,6.23
2023-05-21T02:36:55.298Z,5.67
2023-05-21T02:39:41.719Z,7.03
2023-05-21T02:42:28.137Z,7.13
2023-05-21T02:45:14.436Z,6.17
2023-05-21T02:48:02.278Z,5.90
2023-05-21T02:50:48.934Z,5.87
2023-05-21T02:53:35.318Z,7.40
2023-05-21T02:56:22.159Z,5.77
2023-05-21T02:59:08.796Z,5.13
2023-05-21T03:01:55.302Z,5.20
2023-05-21T03:04:46.223Z,5.17
2023-05-21T03:07:33.245Z,6.07
2023-05-21T03:10:19.769Z,9.73
2023-05-21T03:13:09.604Z,6.13
2023-05-21T03:15:56.562Z,6.63
2023-05-21T03:18:44.230Z,5.57
2023-05-21T03:21:32.365Z,6.07
2023-05-21T03:24:19.100Z,5.87
2023-05-21T03:27:06.737Z,6.47
2023-05-21T03:29:55.098Z,5.80
2023-05-21T03:32:41.776Z,5.50
2023-05-21T03:35:28.570Z,6.60
2023-05-21T03:38:16.547Z,7.50
2023-05-21T03:41:03.472Z,5.20
2023-05-21T03:43:49.813Z,5.17
2023-05-21T03:46:36.315Z,4.47
2023-05-21T03:49:23.289Z,6.07
2023-05-21T03:52:09.657Z,6.40
2023-05-21T03:54:57.351Z,5.80
2023-05-21T03:57:44.444Z,7.53
2023-05-21T04:00:32.582Z,4.17
2023-05-21T04:03:19.427Z,5.43
2023-05-21T04:06:06.917Z,4.63
2023-05-21T04:08:53.744Z,8.47
2023-05-21T04:11:41.905Z,5.20
2023-05-21T04:14:28.539Z,4.87
2023-05-21T04:17:15.047Z,5.03
2023-05-21T04:20:01.387Z,6.23
2023-05-21T04:22:47.896Z,7.73
2023-05-21T04:25:34.623Z,6.77
2023-05-21T04:28:24.199Z,4.50
2023-05-21T04:31:13.015Z,5.33
2023-05-21T04:34:00.450Z,4.53
2023-05-21T04:36:47.307Z,5.10
2023-05-21T04:39:34.821Z,6.47
2023-05-21T04:42:24.044Z,5.27
2023-05-21T04:45:12.750Z,6.17
2023-05-21T04:48:00.762Z,7.77
2023-05-21T04:50:47.787Z,5.43
2023-05-21T04:53:35.837Z,6.47
2023-05-21T04:56:22.948Z,8.67
2023-05-21T04:59:09.429Z,9.57
2023-05-21T05:01:57.580Z,8.43
2023-05-21T05:04:44.456Z,6.30
2023-05-21T05:07:31.422Z,5.40
2023-05-21T05:10:18.149Z,5.30
2023-05-21T05:13:05.012Z,5.77
2023-05-21T05:15:54.452Z,11.07
2023-05-21T05:18:42.979Z,6.97
2023-05-21T05:21:30.652Z,5.00
2023-05-21T05:24:17.363Z,5.67
2023-05-21T05:27:03.701Z,5.80
2023-05-21T05:29:50.100Z,5.53
2023-05-21T05:32:36.497Z,5.23
2023-05-21T05:35:24.300Z,6.27
2023-05-21T05:38:11.215Z,5.67
2023-05-21T05:40:57.869Z,6.53
2023-05-21T05:43:44.316Z,5.60
2023-05-21T05:46:31.001Z,5.23
2023-05-21T05:49:17.866Z,6.93
2023-05-21T05:52:06.733Z,5.17
2023-05-21T05:54:53.132Z,6.00
2023-05-21T05:57:39.853Z,6.20
2023-05-21T06:00:26.353Z,7.43
2023-05-21T06:03:13.322Z,5.70
2023-05-21T06:05:59.927Z,6.60
2023-05-21T06:08:48.282Z,7.47
2023-05-21T06:11:34.821Z,5.03
2023-05-21T06:14:21.291Z,4.63
2023-05-21T06:17:07.710Z,12.10
2023-05-21T06:19:54.219Z,8.43
2023-05-21T06:22:40.726Z,5.47
2023-05-21T06:25:28.540Z,7.80
2023-05-21T06:28:15.706Z,5.70
2023-05-21T06:31:02.416Z,7.50
2023-05-21T06:33:49.480Z,5.90
2023-05-21T06:36:36.600Z,7.07
2023-05-21T06:39:24.576Z,7.80
2023-05-21T06:42:12.609Z,9.37
2023-05-21T06:44:59.279Z,7.10
2023-05-21T06:47:45.881Z,12.63
2023-05-21T06:50:32.638Z,8.43
2023-05-21T06:53:18.978Z,11.17
2023-05-21T06:56:06.018Z,9.80
2023-05-21T06:58:54.513Z,9.53
2023-05-21T07:01:42.510Z,6.90
2023-05-21T07:04:29.588Z,9.80
2023-05-21T07:07:16.086Z,7.43
2023-05-21T07:10:02.987Z,9.50
2023-05-21T07:12:49.694Z,9.33
2023-05-21T07:15:38.064Z,6.90
2023-05-21T07:18:24.967Z,9.83
2023-05-21T07:21:11.444Z,8.57
2023-05-21T07:23:57.925Z,6.60
2023-05-21T07:26:44.249Z,9.07
2023-05-21T07:29:30.711Z,8.43
2023-05-21T07:32:18.765Z,9.70
2023-05-21T07:35:05.660Z,8.67
2023-05-21T07:37:52.234Z,13.43
2023-05-21T07:40:39.238Z,10.03
2023-05-21T07:43:25.723Z,8.83
2023-05-21T07:46:11.999Z,10.17
2023-05-21T07:49:00.258Z,10.43
2023-05-21T07:51:47.105Z,9.93
2023-05-21T07:54:33.535Z,9.40
2023-05-21T07:57:20.034Z,10.37
2023-05-21T08:00:09.221Z,11.00
2023-05-21T08:02:56.201Z,12.07
2023-05-21T08:05:48.474Z,10.97
2023-05-21T08:08:35.016Z,10.60
2023-05-21T08:11:21.857Z,10.57
2023-05-21T08:14:08.546Z,10.60
2023-05-21T08:16:55.090Z,11.83
2023-05-21T08:19:42.046Z,15.30
2023-05-21T08:22:30.054Z,12.33
2023-05-21T08:25:16.452Z,11.93
2023-05-21T08:28:02.793Z,11.57
2023-05-21T08:30:49.202Z,11.77
2023-05-21T08:33:38.328Z,13.80
2023-05-21T08:36:26.309Z,12.33
2023-05-21T08:39:14.346Z,13.97
2023-05-21T08:42:10.916Z,13.10
2023-05-21T08:45:01.453Z,16.80
2023-05-21T08:47:48.165Z,15.13
2023-05-21T08:50:35.097Z,14.93
2023-05-21T08:53:28.207Z,12.27
2023-05-21T08:56:18.150Z,13.10
2023-05-21T08:59:04.648Z,14.20
2023-05-21T09:01:52.586Z,12.33
2023-05-21T09:04:40.014Z,14.03
2023-05-21T09:07:29.320Z,15.63
2023-05-21T09:10:19.238Z,15.60
2023-05-21T09:13:08.075Z,14.17
2023-05-21T09:15:54.853Z,15.57
2023-05-21T09:18:41.349Z,14.13
2023-05-21T09:21:29.181Z,18.00
2023-05-21T09:24:15.812Z,15.43
2023-05-21T09:27:02.770Z,16.20
2023-05-21T09:29:51.099Z,13.87
2023-05-21T09:32:37.913Z,19.30
2023-05-21T09:35:24.759Z,15.10
2023-05-21T09:38:11.004Z,13.80
2023-05-21T09:40:57.666Z,15.20
2023-05-21T09:43:44.954Z,15.40
2023-05-21T09:46:41.469Z,16.77
2023-05-21T09:49:28.539Z,16.60
2023-05-21T09:52:14.941Z,15.00
2023-05-21T09:55:01.948Z,18.40
2023-05-21T09:57:50.710Z,15.37
2023-05-21T10:00:38.036Z,15.73
2023-05-21T10:03:28.818Z,15.90
2023-05-21T10:06:17.103Z,17.50
2023-05-21T10:09:08.141Z,15.77
2023-05-21T10:11:56.073Z,15.47
2023-05-21T10:14:47.458Z,15.97
2023-05-21T10:17:34.318Z,15.27
2023-05-21T10:20:23.971Z,17.80
2023-05-21T10:23:11.491Z,17.83
2023-05-21T10:25:59.805Z,17.37
2023-05-21T10:28:46.953Z,16.10
2023-05-21T10:31:33.686Z,17.33
2023-05-21T10:34:20.720Z,16.53
2023-05-21T10:37:09.712Z,17.63
2023-05-21T10:39:56.783Z,18.30
2023-05-21T10:43:05.263Z,16.00
2023-05-21T10:46:17.765Z,18.17
2023-05-21T10:49:33.936Z,18.17
2023-05-21T10:52:33.859Z,18.70
2023-05-21T10:55:34.161Z,19.60
2023-05-21T10:58:43.839Z,22.37
2023-05-21T11:01:34.045Z,19.83
2023-05-21T11:04:24.392Z,21.87
2023-05-21T11:07:12.190Z,19.77
2023-05-21T11:10:37.031Z,23.83
2023-05-21T11:13:23.950Z,19.57
2023-05-21T11:16:16.092Z,22.47
2023-05-21T11:19:03.796Z,22.87
2023-05-21T11:21:52.571Z,19.57
2023-05-21T11:24:40.573Z,20.20
2023-05-21T11:27:36.954Z,20.50
2023-05-21T11:30:23.411Z,19.57
2023-05-21T11:33:19.683Z,22.27
2023-05-21T11:36:13.206Z,20.60
2023-05-21T11:39:10.639Z,19.60
2023-05-21T11:42:01.023Z,17.87
2023-05-21T11:44:52.256Z,19.37
2023-05-21T11:47:41.097Z,17.97
2023-05-21T11:50:30.634Z,18.97
2023-05-21T11:53:17.354Z,24.27
2023-05-21T11:56:04.713Z,17.70
2023-05-21T11:58:55.104Z,17.93
2023-05-21T12:01:45.852Z,17.80
2023-05-21T12:04:32.458Z,20.63
2023-05-21T12:07:20.540Z,18.47
2023-05-21T12:10:08.463Z,18.73
2023-05-21T12:12:57.255Z,20.80
2023-05-21T12:15:44.096Z,19.40
2023-05-21T12:18:32.153Z,23.00
2023-05-21T12:21:18.757Z,18.17
2023-05-21T12:24:05.717Z,19.37
2023-05-21T12:26:52.902Z,17.87
2023-05-21T12:29:42.442Z,16.50
2023-05-21T12:32:30.238Z,17.47
2023-05-21T12:35:24.978Z,17.33
2023-05-21T12:38:12.046Z,17.17
2023-05-21T12:41:04.997Z,18.23
2023-05-21T12:43:52.423Z,15.30
2023-05-21T12:46:39.410Z,17.13
2023-05-21T12:49:33.908Z,17.33
2023-05-21T12:52:22.164Z,15.30
2023-05-21T12:55:10.501Z,16.77
2023-05-21T12:58:05.386Z,16.67
2023-05-21T13:00:56.514Z,17.43
2023-05-21T13:03:44.211Z,15.70
2023-05-21T13:06:31.503Z,16.43
2023-05-21T13:09:19.720Z,14.90
2023-05-21T13:12:06.592Z,17.63
2023-05-21T13:14:54.592Z,19.57
2023-05-21T13:17:41.194Z,17.27
2023-05-21T13:20:28.062Z,15.70
2023-05-21T13:23:16.637Z,15.60
2023-05-21T13:26:04.728Z,15.40
2023-05-21T13:28:51.400Z,15.40
2023-05-21T13:31:38.216Z,17.07
2023-05-21T13:34:25.694Z,16.93
2023-05-21T13:37:12.907Z,15.47
2023-05-21T13:39:59.830Z,15.73
2023-05-21T13:42:49.615Z,12.83
2023-05-21T13:45:36.251Z,17.40
2023-05-21T13:48:23.340Z,16.80
2023-05-21T13:51:10.247Z,16.60
2023-05-21T13:53:56.858Z,15.80
2023-05-21T13:56:43.658Z,15.77
2023-05-21T13:59:33.661Z,16.87
2023-05-21T14:02:20.774Z,13.33
2023-05-21T14:05:08.198Z,13.73
2023-05-21T14:07:54.905Z,15.10
2023-05-21T14:10:41.738Z,13.87
2023-05-21T14:13:28.605Z,14.73
2023-05-21T14:16:16.600Z,14.13
2023-05-21T14:19:03.767Z,14.00
2023-05-21T14:21:53.336Z,16.03
2023-05-21T14:24:39.610Z,14.77
2023-05-21T14:27:26.398Z,13.57
2023-05-21T14:30:13.539Z,15.37
2023-05-21T14:33:01.715Z,13.70
2023-05-21T14:35:48.297Z,16.33
2023-05-21T14:38:34.891Z,15.37
2023-05-21T14:41:24.925Z,13.07
2023-05-21T14:44:11.658Z,12.50
2023-05-21T14:46:59.101Z,12.70
2023-05-21T14:49:48.152Z,15.17
2023-05-21T14:52:35.920Z,12.33
2023-05-21T14:55:22.453Z,12.20
2023-05-21T14:58:09.831Z,14.17
2023-05-21T15:00:56.866Z,13.67
2023-05-21T15:03:43.391Z,13.30
2023-05-21T15:06:32.358Z,13.10
2023-05-21T15:09:18.878Z,13.63
2023-05-21T15:12:05.756Z,13.20
2023-05-21T15:14:53.089Z,15.00
2023-05-21T15:17:39.986Z,14.90
2023-05-21T15:20:26.760Z,14.70
2023-05-21T15:23:17.140Z,12.67
2023-05-21T15:26:04.671Z,16.23
2023-05-21T15:28:51.343Z,13.47
2023-05-21T15:31:39.516Z,12.03
2023-05-21T15:34:26.706Z,12.90
2023-05-21T15:37:15.298Z,11.80
2023-05-21T15:40:03.182Z,13.10
2023-05-21T15:42:49.783Z,13.03
2023-05-21T15:45:36.340Z,12.37
2023-05-21T15:48:23.410Z,13.50
2023-05-21T15:51:10.134Z,14.63
2023-05-21T15:53:56.517Z,15.17
2023-05-21T15:56:45.639Z,14.47
2023-05-21T15:59:32.043Z,14.73
2023-05-21T16:02:18.466Z,15.33
2023-05-21T16:05:05.238Z,12.80
2023-05-21T16:07:51.649Z,13.30
2023-05-21T16:10:39.979Z,15.70
2023-05-21T16:13:28.223Z,12.13
2023-05-21T16:16:15.438Z,12.50
2023-05-21T16:19:02.653Z,16.90
2023-05-21T16:21:49.128Z,13.57
2023-05-21T16:24:35.575Z,14.43
2023-05-21T16:27:22.609Z,14.53
2023-05-21T16:30:11.999Z,14.87
2023-05-21T16:32:58.882Z,14.63
2023-05-21T16:35:46.405Z,14.97
2023-05-21T16:38:33.005Z,15.73
2023-05-21T16:41:19.855Z,15.27
2023-05-21T16:44:06.404Z,15.43
2023-05-21T16:46:54.331Z,16.10
2023-05-21T16:49:41.061Z,14.40
2023-05-21T16:52:27.717Z,15.40
2023-05-21T16:55:14.227Z,16.53
2023-05-21T16:58:03.395Z,16.07
2023-05-21T17:00:50.004Z,19.80
2023-05-21T17:03:39.689Z,13.97
2023-05-21T17:06:27.568Z,17.37
2023-05-21T17:09:14.028Z,15.60
2023-05-21T17:12:00.523Z,16.77
2023-05-21T17:14:47.005Z,16.70
2023-05-21T17:17:33.452Z,14.43
2023-05-21T17:20:21.841Z,16.67
2023-05-21T17:23:08.639Z,15.27
2023-05-21T17:25:55.302Z,13.83
2023-05-21T17:28:41.789Z,13.60
2023-05-21T17:31:29.162Z,17.40
2023-05-21T17:34:16.721Z,17.73
2023-05-21T17:37:04.930Z,15.50
2023-05-21T17:39:51.646Z,15.30
2023-05-21T17:42:38.515Z,13.77
2023-05-21T17:45:24.910Z,14.80
2023-05-21T17:48:12.055Z,14.77
2023-05-21T17:50:58.917Z,16.33
2023-05-21T17:53:46.672Z,14.30
2023-05-21T17:56:38.661Z,13.03
2023-05-21T17:59:25.482Z,14.43
2023-05-21T18:02:12.108Z,17.60
2023-05-21T18:04:59.001Z,15.83
2023-05-21T18:07:45.481Z,13.57
2023-05-21T18:10:33.893Z,15.53
2023-05-21T18:13:20.628Z,15.63
2023-05-21T18:16:07.298Z,14.10
2023-05-21T18:18:54.222Z,15.10
2023-05-21T18:21:41.202Z,15.27
2023-05-21T18:24:27.751Z,16.10
2023-05-21T18:27:15.919Z,19.13
2023-05-21T18:30:05.355Z,13.23
2023-05-21T18:32:52.286Z,19.80
2023-05-21T18:35:39.078Z,18.93
2023-05-21T18:38:25.832Z,22.07
2023-05-21T18:41:12.583Z,15.23
2023-05-21T18:44:01.661Z,19.97
2023-05-21T18:46:48.554Z,15.37
2023-05-21T18:49:36.355Z,17.73
2023-05-21T18:52:23.408Z,15.93
2023-05-21T18:55:10.719Z,16.57
2023-05-21T18:57:57.406Z,15.00
2023-05-21T19:00:45.765Z,15.70
2023-05-21T19:03:33.409Z,17.07
2023-05-21T19:06:25.074Z,15.10
2023-05-21T19:09:11.465Z,15.97
2023-05-21T19:11:57.958Z,13.90
2023-05-21T19:14:45.051Z,16.17
2023-05-21T19:17:33.548Z,14.57
2023-05-21T19:20:26.376Z,14.80
2023-05-21T19:23:13.298Z,15.23
2023-05-21T19:25:59.714Z,16.60
2023-05-21T19:28:46.163Z,14.77
2023-05-21T19:31:32.587Z,16.33
2023-05-21T19:34:20.639Z,19.30
2023-05-21T19:37:08.098Z,15.57
2023-05-21T19:39:54.449Z,14.77
2023-05-21T19:42:41.415Z,16.17
2023-05-21T19:45:27.881Z,15.03
2023-05-21T19:48:14.877Z,13.97
2023-05-21T19:51:02.867Z,14.63
2023-05-21T19:53:49.559Z,17.60
2023-05-21T19:56:36.353Z,14.77
2023-05-21T19:59:22.974Z,18.83
2023-05-21T20:02:13.206Z,15.70
2023-05-21T20:05:00.352Z,14.83
2023-05-21T20:07:48.408Z,16.23
2023-05-21T20:10:35.782Z,14.07
2023-05-21T20:13:22.968Z,17.23
2023-05-21T20:16:10.398Z,14.10
2023-05-21T20:18:58.372Z,15.63
2023-05-21T20:21:44.915Z,15.80
2023-05-21T20:24:32.771Z,15.27
2023-05-21T20:27:20.018Z,15.17
2023-05-21T20:30:08.365Z,19.50
2023-05-21T20:32:55.129Z,15.60
2023-05-21T20:35:41.950Z,15.33
2023-05-21T20:38:28.516Z,18.03
2023-05-21T20:41:16.650Z,16.90
2023-05-21T20:44:05.502Z,16.03
2023-05-21T20:46:52.729Z,14.97
2023-05-21T20:49:39.783Z,18.00
2023-05-21T20:52:26.090Z,14.90
2023-05-21T20:55:12.688Z,14.90
2023-05-21T20:58:00.806Z,13.77
2023-05-21T21:00:47.564Z,18.70
2023-05-21T21:03:34.920Z,18.70
2023-05-21T21:06:21.916Z,18.07
2023-05-21T21:09:08.563Z,14.50
2023-05-21T21:11:56.139Z,14.93
2023-05-21T21:14:44.254Z,14.37
2023-05-21T21:17:31.090Z,16.70
2023-05-21T21:20:18.685Z,14.07
2023-05-21T21:23:05.570Z,17.60
2023-05-21T21:25:52.170Z,17.40
2023-05-21T21:28:38.606Z,20.13
2023-05-21T21:31:26.650Z,16.33
2023-05-21T21:34:13.376Z,14.60
2023-05-21T21:37:00.422Z,16.63
2023-05-21T21:39:46.678Z,16.23
2023-05-21T21:42:33.130Z,13.27
2023-05-21T21:45:19.796Z,18.63
2023-05-21T21:48:08.525Z,15.23
2023-05-21T21:50:55.782Z,17.10
2023-05-21T21:53:42.406Z,14.57
2023-05-21T21:56:30.178Z,14.33
2023-05-21T21:59:16.937Z,14.57
2023-05-21T22:02:03.397Z,13.67
2023-05-21T22:04:51.150Z,16.93
2023-05-21T22:07:38.727Z,16.70
2023-05-21T22:10:25.417Z,15.63
2023-05-21T22:13:12.884Z,14.87
2023-05-21T22:15:59.644Z,13.47
2023-05-21T22:18:46.609Z,15.37
2023-05-21T22:21:34.989Z,15.37
2023-05-21T22:24:31.968Z,13.93
2023-05-21T22:27:20.038Z,15.13
2023-05-21T22:30:07.636Z,13.50
2023-05-21T22:32:54.189Z,14.30
2023-05-21T22:35:41.158Z,13.87
2023-05-21T22:38:28.968Z,16.17
2023-05-21T22:41:15.612Z,12.50
2023-05-21T22:44:02.165Z,12.67
2023-05-21T22:46:49.428Z,11.77
2023-05-21T22:49:38.182Z,12.37
2023-05-21T22:52:25.251Z,11.27
2023-05-21T22:55:13.053Z,11.27
2023-05-21T22:57:59.702Z,9.57
2023-05-21T23:00:46.123Z,10.97
2023-05-21T23:03:32.748Z,10.93
2023-05-21T23:06:19.270Z,12.47
2023-05-21T23:09:05.976Z,9.93
2023-05-21T23:11:53.871Z,13.03
2023-05-21T23:14:40.625Z,12.40
2023-05-21T23:17:27.111Z,11.30
2023-05-21T23:20:15.462Z,9.20
2023-05-21T23:23:02.221Z,11.43
2023-05-21T23:25:48.933Z,11.17
2023-05-21T23:28:37.179Z,11.97
2023-05-21T23:31:23.575Z,9.30
2023-05-21T23:34:10.346Z,10.37
2023-05-21T23:36:59.427Z,10.80
2023-05-21T23:39:49.589Z,10.13
2023-05-21T23:42:36.876Z,11.50
2023-05-21T23:45:24.991Z,11.83
2023-05-21T23:48:11.916Z,10.87
2023-05-21T23:50:58.851Z,11.70
2023-05-21T23:53:45.468Z,11.77
2023-05-21T23:56:32.183Z,11.93
2023-05-21T23:59:18.714Z,10.83
